Terminal Aerodrome Forecast
Issued by NWS

Home | Current Version | Previous Version | Text Only | Print | Product List | Glossary On
Versions: 1 2 3 4 5 6 7 8 9 10 11 12 13 14 15 16
813
FTUS43 KIND 090520
TAFHUF
TAF
KHUF 090520Z 0906/1006 29010KT 6SM -SHSN SCT015 OVC025
     FM091200 29010KT 3SM -SHSN BR OVC015
     FM091500 29013G22KT 3SM -SHSN BR OVC015
     FM100000 29011KT 6SM -SHSN SCT015 OVC025=

USA.gov is the U.S. government's official web portal to all federal, state and local government web resources and services.